createdAt,value
2022-08-11T00:01:24.230Z,3.50
2022-08-11T00:04:11.466Z,3.43
2022-08-11T00:07:03.297Z,3.10
2022-08-11T00:09:50.296Z,3.50
2022-08-11T00:12:37.301Z,3.43
2022-08-11T00:15:24.384Z,3.30
2022-08-11T00:18:15.191Z,3.60
2022-08-11T00:21:01.967Z,3.50
2022-08-11T00:23:55.423Z,3.70
2022-08-11T00:26:48.139Z,4.00
2022-08-11T00:29:35.776Z,3.53
2022-08-11T00:32:39.655Z,3.30
2022-08-11T00:35:54.047Z,3.80
2022-08-11T00:38:41.780Z,2.93
2022-08-11T00:41:35.454Z,3.30
2022-08-11T00:44:34.263Z,3.20
2022-08-11T00:47:29.300Z,3.60
2022-08-11T00:50:25.309Z,3.30
2022-08-11T00:53:37.691Z,3.50
2022-08-11T00:56:51.274Z,3.30
2022-08-11T01:00:03.639Z,3.00
2022-08-11T01:03:19.590Z,3.37
2022-08-11T01:06:22.833Z,3.70
2022-08-11T01:09:56.059Z,2.90
2022-08-11T01:12:57.675Z,3.20
2022-08-11T01:16:14.603Z,2.90
2022-08-11T01:19:34.737Z,3.10
2022-08-11T01:23:21.117Z,3.47
2022-08-11T01:27:01.466Z,2.80
2022-08-11T01:30:18.791Z,3.43
2022-08-11T01:33:59.566Z,2.93
2022-08-11T01:37:41.186Z,3.30
2022-08-11T01:40:53.478Z,3.07
2022-08-11T01:44:31.515Z,3.30
2022-08-11T01:47:53.015Z,3.27
2022-08-11T01:50:55.111Z,3.00
2022-08-11T01:53:53.916Z,3.37
2022-08-11T01:56:50.698Z,3.17
2022-08-11T01:59:48.742Z,3.10
2022-08-11T02:02:47.642Z,3.23
2022-08-11T02:06:01.486Z,3.40
2022-08-11T02:08:59.980Z,3.70
2022-08-11T02:11:48.547Z,3.43
2022-08-11T02:15:04.790Z,3.60
2022-08-11T02:18:00.199Z,3.20
2022-08-11T02:21:08.467Z,2.83
2022-08-11T02:24:06.579Z,3.00
2022-08-11T02:27:06.192Z,3.00
2022-08-11T02:30:05.174Z,3.17
2022-08-11T02:33:16.845Z,2.73
2022-08-11T02:36:09.030Z,3.30
2022-08-11T02:39:04.468Z,3.23
2022-08-11T02:42:35.143Z,3.10
2022-08-11T02:45:48.604Z,2.93
2022-08-11T02:49:02.780Z,3.30
2022-08-11T02:52:06.166Z,3.00
2022-08-11T02:55:04.532Z,3.20
2022-08-11T02:57:58.036Z,2.87
2022-08-11T03:00:51.933Z,3.50
2022-08-11T03:03:48.566Z,3.33
2022-08-11T03:06:40.217Z,3.10
2022-08-11T03:09:43.142Z,3.23
2022-08-11T03:12:57.216Z,3.30
2022-08-11T03:16:04.449Z,3.20
2022-08-11T03:19:01.067Z,3.10
2022-08-11T03:22:02.845Z,3.47
2022-08-11T03:24:58.786Z,3.70
2022-08-11T03:27:55.117Z,3.77
2022-08-11T03:30:49.690Z,3.57
2022-08-11T03:34:04.138Z,3.00
2022-08-11T03:37:46.828Z,3.40
2022-08-11T03:42:02.059Z,3.20
2022-08-11T03:44:39.111Z,3.77
2022-08-11T03:47:55.052Z,3.60
2022-08-11T03:50:59.398Z,3.70
2022-08-11T03:54:16.103Z,3.60
2022-08-11T03:57:44.348Z,3.37
2022-08-11T04:01:08.110Z,3.43
2022-08-11T04:04:21.075Z,3.60
2022-08-11T04:07:47.039Z,3.57
2022-08-11T04:11:24.232Z,3.37
2022-08-11T04:14:52.737Z,3.40
2022-08-11T04:18:19.451Z,3.87
2022-08-11T04:22:03.241Z,3.70
2022-08-11T04:25:24.062Z,3.70
2022-08-11T04:28:50.822Z,3.33
2022-08-11T04:31:48.839Z,3.63
2022-08-11T04:35:16.107Z,4.07
2022-08-11T04:38:41.633Z,4.00
2022-08-11T04:42:31.039Z,4.53
2022-08-11T04:45:48.230Z,10.40
2022-08-11T04:49:24.249Z,6.03
2022-08-11T04:52:55.685Z,5.80
2022-08-11T04:56:35.807Z,5.20
2022-08-11T05:00:06.126Z,5.60
2022-08-11T05:03:32.441Z,5.53
2022-08-11T05:06:40.792Z,6.07
2022-08-11T05:09:45.844Z,5.90
2022-08-11T05:12:44.377Z,6.33
2022-08-11T05:16:02.727Z,6.00
2022-08-11T05:19:09.326Z,6.00
2022-08-11T05:22:17.309Z,5.37
2022-08-11T05:26:43.863Z,6.60
2022-08-11T05:28:53.698Z,5.83
2022-08-11T05:32:04.624Z,6.23
2022-08-11T05:34:54.622Z,6.43
2022-08-11T05:38:02.304Z,6.60
2022-08-11T05:41:13.267Z,6.07
2022-08-11T05:44:19.737Z,5.83
2022-08-11T05:47:25.712Z,5.67
2022-08-11T05:50:33.161Z,5.83
2022-08-11T05:53:45.847Z,6.20
2022-08-11T05:56:36.807Z,5.23
2022-08-11T05:59:25.685Z,4.97
2022-08-11T06:02:12.846Z,5.67
2022-08-11T06:05:01.075Z,5.63
2022-08-11T06:07:50.268Z,5.10
2022-08-11T06:10:39.107Z,5.87
2022-08-11T06:13:28.042Z,4.80
2022-08-11T06:16:16.321Z,4.60
2022-08-11T06:19:04.216Z,5.10
2022-08-11T06:21:53.185Z,4.97
2022-08-11T06:24:42.185Z,5.03
2022-08-11T06:27:31.365Z,5.13
2022-08-11T06:30:23.456Z,5.10
2022-08-11T06:33:13.053Z,4.80
2022-08-11T06:36:07.549Z,5.50
2022-08-11T06:39:03.470Z,4.23
2022-08-11T06:41:54.218Z,4.67
2022-08-11T06:44:45.002Z,3.97
2022-08-11T06:47:33.874Z,4.57
2022-08-11T06:50:40.307Z,4.60
2022-08-11T06:53:27.317Z,4.27
2022-08-11T06:56:33.277Z,3.53
2022-08-11T06:59:49.047Z,3.77
2022-08-11T07:02:45.378Z,3.80
2022-08-11T07:05:43.978Z,3.97
2022-08-11T07:09:22.919Z,3.30
2022-08-11T07:12:56.146Z,4.27
2022-08-11T07:16:12.563Z,3.77
2022-08-11T07:19:09.784Z,4.00
2022-08-11T07:22:27.158Z,3.73
2022-08-11T07:25:34.388Z,3.80
2022-08-11T07:28:43.430Z,3.77
2022-08-11T07:31:41.993Z,3.57
2022-08-11T07:34:36.565Z,3.10
2022-08-11T07:37:25.446Z,3.10
2022-08-11T07:40:13.057Z,3.10
2022-08-11T07:43:01.498Z,3.77
2022-08-11T07:46:06.402Z,3.07
2022-08-11T07:49:11.626Z,3.50
2022-08-11T07:52:17.396Z,3.10
2022-08-11T07:55:08.464Z,3.13
2022-08-11T07:58:19.623Z,3.40
2022-08-11T08:01:24.564Z,2.80
2022-08-11T08:04:31.075Z,3.10
2022-08-11T08:07:40.197Z,2.70
2022-08-11T08:10:44.518Z,3.10
2022-08-11T08:13:51.940Z,2.93
2022-08-11T08:16:56.376Z,2.90
2022-08-11T08:19:47.935Z,3.20
2022-08-11T08:22:38.656Z,2.70
2022-08-11T08:25:27.574Z,2.60
2022-08-11T08:28:18.510Z,2.60
2022-08-11T08:31:04.261Z,3.20
2022-08-11T08:33:52.560Z,2.60
2022-08-11T08:36:43.603Z,2.40
2022-08-11T08:39:33.797Z,2.37
2022-08-11T08:42:25.591Z,2.23
2022-08-11T08:45:15.893Z,2.33
2022-08-11T08:48:05.977Z,2.40
2022-08-11T08:51:23.798Z,2.00
2022-08-11T08:54:15.582Z,1.80
2022-08-11T08:57:05.169Z,2.10
2022-08-11T08:59:53.114Z,2.20
2022-08-11T09:02:41.323Z,1.83
2022-08-11T09:05:28.307Z,2.03
2022-08-11T09:08:15.739Z,1.73
2022-08-11T09:11:20.309Z,2.13
2022-08-11T09:14:14.352Z,2.03
2022-08-11T09:17:02.045Z,2.03
2022-08-11T09:19:56.820Z,2.00
2022-08-11T09:23:54.586Z,2.13
2022-08-11T09:26:30.418Z,1.70
2022-08-11T09:29:19.086Z,2.33
2022-08-11T09:32:07.241Z,2.00
2022-08-11T09:34:55.097Z,1.60
2022-08-11T09:37:59.978Z,2.10
2022-08-11T09:40:56.137Z,1.98
2022-08-11T09:44:04.435Z,1.92
2022-08-11T09:46:53.973Z,1.98
2022-08-11T09:49:45.344Z,1.90
2022-08-11T09:52:36.929Z,2.20
2022-08-11T09:55:23.954Z,1.80
2022-08-11T09:58:41.866Z,2.10
2022-08-11T10:01:29.619Z,2.10
2022-08-11T10:04:20.482Z,2.00
2022-08-11T10:07:10.483Z,1.90
2022-08-11T10:10:03.062Z,2.07
2022-08-11T10:12:52.014Z,1.73
2022-08-11T10:15:59.619Z,1.92
2022-08-11T10:18:53.357Z,1.95
2022-08-11T10:21:44.242Z,1.98
2022-08-11T10:24:48.905Z,1.90
2022-08-11T10:28:16.867Z,1.90
2022-08-11T10:31:04.211Z,1.80
2022-08-11T10:34:04.355Z,1.90
2022-08-11T10:36:52.693Z,1.80
2022-08-11T10:39:41.563Z,1.83
2022-08-11T10:42:57.916Z,1.90
2022-08-11T10:46:05.154Z,2.10
2022-08-11T10:48:52.129Z,2.00
2022-08-11T10:51:58.669Z,2.03
2022-08-11T10:55:08.038Z,2.13
2022-08-11T10:58:12.079Z,1.85
2022-08-11T11:01:00.655Z,1.90
2022-08-11T11:03:48.590Z,2.08
2022-08-11T11:06:44.808Z,2.13
2022-08-11T11:09:33.885Z,2.05
2022-08-11T11:12:45.294Z,1.90
2022-08-11T11:15:53.318Z,2.00
2022-08-11T11:18:40.242Z,1.80
2022-08-11T11:21:28.057Z,1.90
2022-08-11T11:24:27.273Z,2.10
2022-08-11T11:27:27.969Z,1.90
2022-08-11T11:30:16.398Z,2.10
2022-08-11T11:33:10.326Z,1.90
2022-08-11T11:36:11.826Z,2.10
2022-08-11T11:38:59.013Z,2.17
2022-08-11T11:41:46.305Z,2.03
2022-08-11T11:44:35.365Z,2.00
2022-08-11T11:47:22.972Z,2.20
2022-08-11T11:50:10.418Z,1.83
2022-08-11T11:52:59.509Z,2.15
2022-08-11T11:55:47.653Z,2.00
2022-08-11T11:58:51.520Z,2.05
2022-08-11T12:01:39.615Z,1.90
2022-08-11T12:04:27.946Z,1.70
2022-08-11T12:07:32.645Z,2.08
2022-08-11T12:10:19.823Z,1.98
2022-08-11T12:13:24.585Z,2.10
2022-08-11T12:16:33.384Z,1.70
2022-08-11T12:19:25.564Z,1.80
2022-08-11T12:22:29.797Z,1.92
2022-08-11T12:25:35.039Z,2.10
2022-08-11T12:28:22.929Z,1.85
2022-08-11T12:31:16.069Z,2.00
2022-08-11T12:34:04.324Z,2.00
2022-08-11T12:36:58.512Z,1.42
2022-08-11T12:40:11.011Z,1.60
2022-08-11T12:43:38.067Z,1.70
2022-08-11T12:46:31.878Z,1.80
2022-08-11T12:49:43.363Z,1.95
2022-08-11T12:52:38.217Z,1.80
2022-08-11T12:55:40.095Z,1.58
2022-08-11T12:58:28.272Z,1.75
2022-08-11T13:01:32.768Z,1.75
2022-08-11T13:04:37.180Z,1.63
2022-08-11T13:07:25.702Z,1.50
2022-08-11T13:10:37.924Z,1.35
2022-08-11T13:13:52.852Z,1.50
2022-08-11T13:16:53.341Z,1.50
2022-08-11T13:19:45.168Z,1.80
2022-08-11T13:22:36.425Z,1.70
2022-08-11T13:25:27.536Z,1.50
2022-08-11T13:28:14.445Z,2.25
2022-08-11T13:31:14.897Z,1.80
2022-08-11T13:36:53.081Z,1.85
2022-08-11T13:39:44.220Z,1.38
2022-08-11T13:42:33.315Z,1.50
2022-08-11T13:45:23.334Z,1.67
2022-08-11T13:48:13.256Z,1.40
2022-08-11T13:51:17.611Z,1.33
2022-08-11T13:54:07.001Z,1.75
2022-08-11T13:56:56.876Z,1.75
2022-08-11T13:59:52.492Z,1.77
2022-08-11T14:02:43.213Z,1.40
2022-08-11T14:05:37.701Z,1.48
2022-08-11T14:08:37.286Z,1.70
2022-08-11T14:12:21.480Z,1.40
2022-08-11T14:14:58.559Z,1.65
2022-08-11T14:17:48.753Z,1.60
2022-08-11T14:20:57.513Z,1.38
2022-08-11T14:23:47.175Z,1.30
2022-08-11T14:26:38.945Z,1.67
2022-08-11T14:29:28.594Z,1.80
2022-08-11T14:32:17.412Z,1.45
2022-08-11T14:35:04.493Z,1.60
2022-08-11T14:37:51.783Z,1.70
2022-08-11T14:40:55.699Z,1.88
2022-08-11T14:44:13.100Z,2.10
2022-08-11T14:47:24.046Z,1.95
2022-08-11T14:50:18.022Z,1.90
2022-08-11T14:53:07.455Z,2.30
2022-08-11T14:56:13.402Z,2.17
2022-08-11T14:59:02.121Z,2.43
2022-08-11T15:02:07.358Z,2.20
2022-08-11T15:04:56.175Z,2.30
2022-08-11T15:07:44.578Z,1.90
2022-08-11T15:10:32.099Z,2.20
2022-08-11T15:13:19.577Z,2.30
2022-08-11T15:16:24.085Z,2.30
2022-08-11T15:19:12.082Z,1.73
2022-08-11T15:22:15.724Z,2.27
2022-08-11T15:25:04.110Z,2.00
2022-08-11T15:28:11.837Z,2.40
2022-08-11T15:31:18.082Z,1.90
2022-08-11T15:34:25.059Z,1.90
2022-08-11T15:37:30.952Z,2.30
2022-08-11T15:40:41.243Z,2.10
2022-08-11T15:43:56.186Z,2.07
2022-08-11T15:46:46.630Z,2.17
2022-08-11T15:50:10.981Z,2.53
2022-08-11T15:52:53.640Z,2.20
2022-08-11T15:55:43.520Z,2.20
2022-08-11T15:59:40.742Z,2.17
2022-08-11T16:02:17.039Z,2.23
2022-08-11T16:05:09.356Z,1.80
2022-08-11T16:07:57.516Z,2.03
2022-08-11T16:10:47.255Z,1.97
2022-08-11T16:13:59.740Z,2.03
2022-08-11T16:16:48.050Z,2.03
2022-08-11T16:19:37.935Z,2.10
2022-08-11T16:22:34.369Z,2.30
2022-08-11T16:27:07.289Z,2.37
2022-08-11T16:28:35.416Z,2.63
2022-08-11T16:31:23.200Z,3.23
2022-08-11T16:34:31.582Z,2.07
2022-08-11T16:37:36.083Z,2.27
2022-08-11T16:40:23.404Z,2.30
2022-08-11T16:43:31.182Z,2.30
2022-08-11T16:46:35.095Z,2.30
2022-08-11T16:49:29.419Z,2.40
2022-08-11T16:52:20.583Z,2.37
2022-08-11T16:55:09.697Z,2.40
2022-08-11T16:58:14.785Z,2.10
2022-08-11T17:01:03.215Z,2.20
2022-08-11T17:04:16.340Z,2.13
2022-08-11T17:07:40.356Z,2.40
2022-08-11T17:10:51.893Z,2.20
2022-08-11T17:13:44.578Z,2.40
2022-08-11T17:16:35.448Z,2.37
2022-08-11T17:20:42.363Z,2.40
2022-08-11T17:22:53.166Z,2.23
2022-08-11T17:26:03.480Z,2.27
2022-08-11T17:28:53.732Z,2.13
2022-08-11T17:31:58.685Z,3.00
2022-08-11T17:35:06.860Z,2.20
2022-08-11T17:37:55.126Z,2.20
2022-08-11T17:41:04.044Z,2.10
2022-08-11T17:44:09.590Z,2.30
2022-08-11T17:47:13.752Z,2.17
2022-08-11T17:50:16.615Z,2.40
2022-08-11T17:53:22.111Z,3.90
2022-08-11T17:56:27.502Z,4.40
2022-08-11T17:59:33.933Z,2.70
2022-08-11T18:02:42.282Z,2.90
2022-08-11T18:05:33.798Z,2.70
2022-08-11T18:08:39.347Z,2.40
2022-08-11T18:12:06.679Z,2.33
2022-08-11T18:15:13.782Z,2.57
2022-08-11T18:18:17.637Z,2.50
2022-08-11T18:21:25.282Z,2.60
2022-08-11T18:24:32.074Z,3.00
2022-08-11T18:27:39.083Z,2.20
2022-08-11T18:30:43.904Z,2.37
2022-08-11T18:34:06.796Z,2.57
2022-08-11T18:37:24.798Z,3.00
2022-08-11T18:40:38.185Z,3.10
2022-08-11T18:43:46.096Z,3.80
2022-08-11T18:46:55.063Z,2.70
2022-08-11T18:50:05.196Z,2.70
2022-08-11T18:53:12.639Z,2.43
2022-08-11T18:56:18.924Z,2.80
2022-08-11T18:59:24.945Z,2.47
2022-08-11T19:02:31.279Z,2.77
2022-08-11T19:06:32.010Z,2.70
2022-08-11T19:09:10.498Z,2.87
2022-08-11T19:12:16.994Z,2.63
2022-08-11T19:15:22.484Z,3.20
2022-08-11T19:18:28.875Z,3.13
2022-08-11T19:21:35.211Z,2.83
2022-08-11T19:24:43.914Z,2.90
2022-08-11T19:27:48.885Z,2.80
2022-08-11T19:30:54.255Z,2.40
2022-08-11T19:34:02.537Z,2.67
2022-08-11T19:37:15.044Z,2.50
2022-08-11T19:40:24.953Z,2.70
2022-08-11T19:43:30.277Z,3.30
2022-08-11T19:46:36.543Z,3.80
2022-08-11T19:49:41.618Z,4.00
2022-08-11T19:52:47.399Z,3.07
2022-08-11T19:55:53.237Z,2.90
2022-08-11T19:58:58.756Z,3.23
2022-08-11T20:02:13.248Z,3.30
2022-08-11T20:05:19.292Z,3.30
2022-08-11T20:08:25.005Z,4.77
2022-08-11T20:11:33.651Z,3.10
2022-08-11T20:14:39.250Z,3.30
2022-08-11T20:17:47.484Z,2.93
2022-08-11T20:20:52.617Z,3.23
2022-08-11T20:23:59.647Z,2.50
2022-08-11T20:27:06.489Z,2.67
2022-08-11T20:30:24.357Z,2.90
2022-08-11T20:33:28.752Z,3.20
2022-08-11T20:36:34.463Z,3.40
2022-08-11T20:39:40.524Z,3.40
2022-08-11T20:42:47.803Z,3.40
2022-08-11T20:45:56.881Z,2.60
2022-08-11T20:49:03.119Z,2.83
2022-08-11T20:52:10.129Z,3.20
2022-08-11T20:55:20.965Z,3.10
2022-08-11T20:58:54.825Z,3.30
2022-08-11T21:01:58.458Z,2.83
2022-08-11T21:05:07.609Z,3.30
2022-08-11T21:08:19.147Z,2.77
2022-08-11T21:11:31.945Z,3.17
2022-08-11T21:14:40.219Z,3.23
2022-08-11T21:18:00.703Z,3.40
2022-08-11T21:21:16.477Z,3.33
2022-08-11T21:24:22.818Z,3.27
2022-08-11T21:27:31.472Z,3.10
2022-08-11T21:30:37.450Z,3.00
2022-08-11T21:33:42.052Z,3.00
2022-08-11T21:36:47.454Z,3.37
2022-08-11T21:39:53.598Z,3.30
2022-08-11T21:43:01.839Z,3.37
2022-08-11T21:46:08.999Z,3.50
2022-08-11T21:49:15.872Z,3.00
2022-08-11T21:52:21.813Z,3.30
2022-08-11T21:55:27.076Z,3.80
2022-08-11T21:58:32.414Z,3.20
2022-08-11T22:01:39.135Z,3.10
2022-08-11T22:04:44.104Z,3.10
2022-08-11T22:07:49.923Z,3.33
2022-08-11T22:10:53.987Z,3.33
2022-08-11T22:14:05.750Z,3.40
2022-08-11T22:17:13.227Z,3.67
2022-08-11T22:20:19.067Z,3.30
2022-08-11T22:23:24.501Z,3.50
2022-08-11T22:26:35.632Z,2.90
2022-08-11T22:29:51.165Z,3.50
2022-08-11T22:32:57.694Z,3.30
2022-08-11T22:36:03.546Z,3.20
2022-08-11T22:39:09.397Z,3.30
2022-08-11T22:42:13.314Z,3.40
2022-08-11T22:45:17.631Z,3.33
2022-08-11T22:48:24.197Z,3.40
2022-08-11T22:51:28.710Z,2.93
2022-08-11T22:54:33.582Z,2.90
2022-08-11T22:57:38.819Z,3.33
2022-08-11T23:00:43.156Z,3.33
2022-08-11T23:03:51.369Z,3.67
2022-08-11T23:06:57.290Z,3.23
2022-08-11T23:10:01.360Z,3.23
2022-08-11T23:13:05.424Z,3.53
2022-08-11T23:16:10.988Z,3.13
2022-08-11T23:20:07.220Z,3.07
2022-08-11T23:22:49.835Z,2.83
2022-08-11T23:25:55.687Z,3.30
2022-08-11T23:29:05.051Z,3.40
2022-08-11T23:32:11.350Z,2.80
2022-08-11T23:35:38.602Z,3.37
2022-08-11T23:38:43.217Z,2.90
2022-08-11T23:41:47.636Z,3.07
2022-08-11T23:44:51.856Z,3.10
2022-08-11T23:47:57.767Z,3.23
2022-08-11T23:51:04.071Z,2.73
2022-08-11T23:54:09.302Z,2.73
2022-08-11T23:57:13.902Z,3.27
